sensor_id;sensor_type;location;lat;lon;timestamp;pressure;altitude;pressure_sealevel;temperature;humidity
60583;BME280;46415;47.536;19.066;2022-09-16T00:00:10;99579.03;;;17.06;100.00
60583;BME280;46415;47.536;19.066;2022-09-16T00:03:15;99572.56;;;17.10;100.00
60583;BME280;46415;47.536;19.066;2022-09-16T00:06:21;99565.41;;;17.12;100.00
60583;BME280;46415;47.536;19.066;2022-09-16T00:09:24;99555.56;;;17.05;100.00
60583;BME280;46415;47.536;19.066;2022-09-16T00:12:27;99551.53;;;17.01;100.00
60583;BME280;46415;47.536;19.066;2022-09-16T00:15:30;99564.53;;;17.02;100.00
60583;BME280;46415;47.536;19.066;2022-09-16T00:18:32;99568.66;;;17.05;100.00
60583;BME280;46415;47.536;19.066;2022-09-16T00:21:36;99567.53;;;16.98;100.00
60583;BME280;46415;47.536;19.066;2022-09-16T00:24:38;99573.69;;;16.76;100.00
60583;BME280;46415;47.536;19.066;2022-09-16T00:27:41;99580.53;;;16.67;100.00
60583;BME280;46415;47.536;19.066;2022-09-16T00:30:44;99569.78;;;16.70;100.00
60583;BME280;46415;47.536;19.066;2022-09-16T00:33:47;99589.47;;;16.54;100.00
60583;BME280;46415;47.536;19.066;2022-09-16T00:36:49;99593.16;;;16.51;100.00
60583;BME280;46415;47.536;19.066;2022-09-16T00:39:52;99591.03;;;16.56;100.00
60583;BME280;46415;47.536;19.066;2022-09-16T00:42:55;99589.13;;;16.47;100.00
60583;BME280;46415;47.536;19.066;2022-09-16T00:46:00;99591.88;;;16.46;100.00
60583;BME280;46415;47.536;19.066;2022-09-16T00:49:19;99598.66;;;16.48;100.00
60583;BME280;46415;47.536;19.066;2022-09-16T00:52:25;99602.13;;;16.49;100.00
60583;BME280;46415;47.536;19.066;2022-09-16T00:55:32;99603.06;;;16.48;100.00
60583;BME280;46415;47.536;19.066;2022-09-16T00:58:41;99605.56;;;16.49;100.00
60583;BME280;46415;47.536;19.066;2022-09-16T01:01:46;99601.66;;;16.44;100.00
60583;BME280;46415;47.536;19.066;2022-09-16T01:04:57;99586.78;;;16.33;100.00
60583;BME280;46415;47.536;19.066;2022-09-16T01:08:01;99599.41;;;16.28;100.00
60583;BME280;46415;47.536;19.066;2022-09-16T01:11:05;99614.44;;;16.26;100.00
60583;BME280;46415;47.536;19.066;2022-09-16T01:14:07;99608.97;;;16.07;100.00
60583;BME280;46415;47.536;19.066;2022-09-16T01:21:15;99614.44;;;15.92;100.00
60583;BME280;46415;47.536;19.066;2022-09-16T01:24:52;99620.75;;;15.90;100.00
60583;BME280;46415;47.536;19.066;2022-09-16T01:32:45;99614.06;;;16.30;100.00
60583;BME280;46415;47.536;19.066;2022-09-16T01:38:55;99628.56;;;15.68;100.00
60583;BME280;46415;47.536;19.066;2022-09-16T01:42:23;99629.03;;;15.62;100.00
60583;BME280;46415;47.536;19.066;2022-09-16T01:45:52;99629.03;;;15.62;100.00
60583;BME280;46415;47.536;19.066;2022-09-16T01:49:40;99623.56;;;15.54;100.00
60583;BME280;46415;47.536;19.066;2022-09-16T01:56:02;99613.69;;;15.57;100.00
60583;BME280;46415;47.536;19.066;2022-09-16T01:59:09;99610.38;;;15.55;100.00
60583;BME280;46415;47.536;19.066;2022-09-16T02:02:18;99598.69;;;15.48;100.00
60583;BME280;46415;47.536;19.066;2022-09-16T02:05:46;99604.13;;;15.45;100.00
60583;BME280;46415;47.536;19.066;2022-09-16T02:08:54;99595.75;;;15.52;100.00
60583;BME280;46415;47.536;19.066;2022-09-16T02:12:03;99610.50;;;15.54;100.00
60583;BME280;46415;47.536;19.066;2022-09-16T02:15:09;99619.19;;;15.65;100.00
60583;BME280;46415;47.536;19.066;2022-09-16T02:18:18;99623.94;;;15.60;100.00
60583;BME280;46415;47.536;19.066;2022-09-16T02:21:23;99625.59;;;15.61;100.00
60583;BME280;46415;47.536;19.066;2022-09-16T02:24:28;99625.13;;;15.67;100.00
60583;BME280;46415;47.536;19.066;2022-09-16T02:27:33;99628.19;;;15.61;100.00
60583;BME280;46415;47.536;19.066;2022-09-16T02:30:41;99638.91;;;15.58;100.00
60583;BME280;46415;47.536;19.066;2022-09-16T02:34:06;99634.87;;;15.54;100.00
60583;BME280;46415;47.536;19.066;2022-09-16T02:37:22;99639.16;;;15.55;100.00
60583;BME280;46415;47.536;19.066;2022-09-16T02:40:36;99623.38;;;15.44;100.00
60583;BME280;46415;47.536;19.066;2022-09-16T02:43:43;99635.97;;;15.39;100.00
60583;BME280;46415;47.536;19.066;2022-09-16T02:47:10;99641.94;;;15.41;100.00
60583;BME280;46415;47.536;19.066;2022-09-16T02:50:31;99644.06;;;15.36;100.00
60583;BME280;46415;47.536;19.066;2022-09-16T02:53:44;99654.56;;;15.47;100.00
60583;BME280;46415;47.536;19.066;2022-09-16T02:56:49;99654.97;;;15.54;100.00
60583;BME280;46415;47.536;19.066;2022-09-16T02:59:52;99665.78;;;15.60;100.00
60583;BME280;46415;47.536;19.066;2022-09-16T03:02:56;99665.53;;;15.52;100.00
60583;BME280;46415;47.536;19.066;2022-09-16T03:06:09;99675.53;;;15.58;100.00
60583;BME280;46415;47.536;19.066;2022-09-16T03:09:16;99671.03;;;15.60;100.00
60583;BME280;46415;47.536;19.066;2022-09-16T03:15:59;99668.56;;;15.46;100.00
60583;BME280;46415;47.536;19.066;2022-09-16T03:32:23;99666.06;;;15.44;100.00
60583;BME280;46415;47.536;19.066;2022-09-16T03:35:31;99668.34;;;15.49;100.00
60583;BME280;46415;47.536;19.066;2022-09-16T03:38:37;99660.69;;;15.35;100.00
60583;BME280;46415;47.536;19.066;2022-09-16T03:41:41;99665.69;;;15.38;100.00
60583;BME280;46415;47.536;19.066;2022-09-16T03:44:44;99663.91;;;15.38;100.00
60583;BME280;46415;47.536;19.066;2022-09-16T03:47:49;99662.97;;;15.39;100.00
60583;BME280;46415;47.536;19.066;2022-09-16T03:50:52;99669.72;;;15.31;100.00
60583;BME280;46415;47.536;19.066;2022-09-16T03:53:54;99669.97;;;15.39;100.00
60583;BME280;46415;47.536;19.066;2022-09-16T03:56:57;99680.63;;;15.25;100.00
60583;BME280;46415;47.536;19.066;2022-09-16T04:00:02;99690.84;;;15.28;100.00
60583;BME280;46415;47.536;19.066;2022-09-16T04:03:13;99689.19;;;15.27;100.00
60583;BME280;46415;47.536;19.066;2022-09-16T04:06:15;99680.84;;;15.22;100.00
60583;BME280;46415;47.536;19.066;2022-09-16T04:09:18;99678.97;;;15.24;100.00
60583;BME280;46415;47.536;19.066;2022-09-16T04:12:21;99684.56;;;15.30;100.00
60583;BME280;46415;47.536;19.066;2022-09-16T04:15:23;99689.63;;;15.21;100.00
60583;BME280;46415;47.536;19.066;2022-09-16T04:18:26;99693.19;;;15.20;100.00
60583;BME280;46415;47.536;19.066;2022-09-16T04:21:31;99682.38;;;15.13;100.00
60583;BME280;46415;47.536;19.066;2022-09-16T04:24:34;99682.97;;;15.17;100.00
60583;BME280;46415;47.536;19.066;2022-09-16T04:27:37;99686.91;;;15.22;100.00
60583;BME280;46415;47.536;19.066;2022-09-16T04:30:40;99703.37;;;15.11;100.00
60583;BME280;46415;47.536;19.066;2022-09-16T04:33:42;99707.28;;;15.06;100.00
60583;BME280;46415;47.536;19.066;2022-09-16T04:36:45;99713.56;;;15.03;100.00
60583;BME280;46415;47.536;19.066;2022-09-16T04:39:48;99701.94;;;15.07;100.00
60583;BME280;46415;47.536;19.066;2022-09-16T04:42:51;99695.69;;;15.21;100.00
60583;BME280;46415;47.536;19.066;2022-09-16T04:45:53;99696.78;;;15.19;100.00
60583;BME280;46415;47.536;19.066;2022-09-16T04:48:57;99690.72;;;15.18;100.00
60583;BME280;46415;47.536;19.066;2022-09-16T04:52:00;99688.94;;;15.19;100.00
60583;BME280;46415;47.536;19.066;2022-09-16T04:55:03;99703.66;;;15.20;100.00
60583;BME280;46415;47.536;19.066;2022-09-16T04:58:06;99705.31;;;15.21;100.00
60583;BME280;46415;47.536;19.066;2022-09-16T05:01:11;99712.94;;;15.24;100.00
60583;BME280;46415;47.536;19.066;2022-09-16T05:04:14;99709.88;;;15.30;100.00
60583;BME280;46415;47.536;19.066;2022-09-16T05:07:17;99719.19;;;15.45;100.00
60583;BME280;46415;47.536;19.066;2022-09-16T05:10:19;99712.94;;;15.47;100.00
60583;BME280;46415;47.536;19.066;2022-09-16T05:13:22;99712.63;;;15.63;100.00
60583;BME280;46415;47.536;19.066;2022-09-16T05:16:25;99714.69;;;15.71;100.00
60583;BME280;46415;47.536;19.066;2022-09-16T05:19:29;99713.03;;;15.81;100.00
60583;BME280;46415;47.536;19.066;2022-09-16T05:22:31;99712.91;;;15.82;100.00
60583;BME280;46415;47.536;19.066;2022-09-16T05:25:34;99714.59;;;15.83;100.00
60583;BME280;46415;47.536;19.066;2022-09-16T05:28:37;99716.12;;;15.86;100.00
60583;BME280;46415;47.536;19.066;2022-09-16T05:31:42;99713.66;;;15.84;100.00
60583;BME280;46415;47.536;19.066;2022-09-16T05:34:45;99727.44;;;15.86;100.00
60583;BME280;46415;47.536;19.066;2022-09-16T05:37:48;99733.03;;;15.93;100.00
60583;BME280;46415;47.536;19.066;2022-09-16T05:40:50;99732.69;;;15.98;100.00
60583;BME280;46415;47.536;19.066;2022-09-16T05:43:57;99731.72;;;15.99;100.00
60583;BME280;46415;47.536;19.066;2022-09-16T05:46:59;99715.56;;;16.05;100.00
60583;BME280;46415;47.536;19.066;2022-09-16T05:50:02;99719.16;;;16.26;100.00
60583;BME280;46415;47.536;19.066;2022-09-16T05:53:05;99732.09;;;16.16;100.00
60583;BME280;46415;47.536;19.066;2022-09-16T05:56:13;99732.84;;;16.18;100.00
60583;BME280;46415;47.536;19.066;2022-09-16T05:59:16;99733.69;;;16.30;100.00
60583;BME280;46415;47.536;19.066;2022-09-16T06:02:20;99725.81;;;16.30;100.00
60583;BME280;46415;47.536;19.066;2022-09-16T06:05:22;99719.63;;;16.31;100.00
60583;BME280;46415;47.536;19.066;2022-09-16T06:08:27;99722.81;;;16.46;100.00
60583;BME280;46415;47.536;19.066;2022-09-16T06:11:30;99721.31;;;16.43;100.00
60583;BME280;46415;47.536;19.066;2022-09-16T06:14:33;99722.47;;;16.39;100.00
60583;BME280;46415;47.536;19.066;2022-09-16T06:17:35;99718.19;;;16.49;100.00
60583;BME280;46415;47.536;19.066;2022-09-16T06:20:38;99709.59;;;16.58;100.00
60583;BME280;46415;47.536;19.066;2022-09-16T06:23:42;99718.28;;;16.81;100.00
60583;BME280;46415;47.536;19.066;2022-09-16T06:26:45;99737.44;;;16.93;100.00
60583;BME280;46415;47.536;19.066;2022-09-16T06:29:48;99731.06;;;16.86;100.00
60583;BME280;46415;47.536;19.066;2022-09-16T06:32:51;99734.97;;;16.91;100.00
60583;BME280;46415;47.536;19.066;2022-09-16T06:35:54;99734.63;;;16.85;100.00
60583;BME280;46415;47.536;19.066;2022-09-16T06:38:58;99720.34;;;16.78;100.00
60583;BME280;46415;47.536;19.066;2022-09-16T06:42:06;99716.00;;;16.88;100.00
60583;BME280;46415;47.536;19.066;2022-09-16T06:45:14;99713.03;;;16.81;99.25
60583;BME280;46415;47.536;19.066;2022-09-16T06:48:16;99723.69;;;16.80;100.00
60583;BME280;46415;47.536;19.066;2022-09-16T06:51:23;99730.78;;;16.89;99.26
60583;BME280;46415;47.536;19.066;2022-09-16T06:54:26;99721.50;;;16.96;97.87
60583;BME280;46415;47.536;19.066;2022-09-16T06:57:29;99717.75;;;17.09;99.28
60583;BME280;46415;47.536;19.066;2022-09-16T07:00:32;99714.59;;;17.27;95.95
60583;BME280;46415;47.536;19.066;2022-09-16T07:03:39;99719.47;;;17.31;97.38
60583;BME280;46415;47.536;19.066;2022-09-16T07:06:43;99721.81;;;17.34;93.49
60583;BME280;46415;47.536;19.066;2022-09-16T07:10:07;99725.91;;;17.27;95.69
60583;BME280;46415;47.536;19.066;2022-09-16T07:13:10;99720.69;;;17.27;95.62
60583;BME280;46415;47.536;19.066;2022-09-16T07:16:18;99730.53;;;17.35;94.14
60583;BME280;46415;47.536;19.066;2022-09-16T07:19:24;99730.62;;;17.44;94.89
60583;BME280;46415;47.536;19.066;2022-09-16T07:22:30;99724.34;;;17.57;93.30
60583;BME280;46415;47.536;19.066;2022-09-16T07:25:33;99736.53;;;17.58;93.79
60583;BME280;46415;47.536;19.066;2022-09-16T07:28:38;99748.91;;;17.67;93.95
60583;BME280;46415;47.536;19.066;2022-09-16T07:31:41;99742.25;;;17.83;91.39
60583;BME280;46415;47.536;19.066;2022-09-16T07:34:44;99749.28;;;17.83;92.81
60583;BME280;46415;47.536;19.066;2022-09-16T07:37:47;99753.00;;;17.80;88.92
60583;BME280;46415;47.536;19.066;2022-09-16T07:40:49;99749.09;;;17.95;90.08
60583;BME280;46415;47.536;19.066;2022-09-16T07:43:54;99751.03;;;17.73;89.68
60583;BME280;46415;47.536;19.066;2022-09-16T07:46:57;99746.72;;;17.72;91.37
60583;BME280;46415;47.536;19.066;2022-09-16T07:49:59;99755.31;;;17.74;90.02
60583;BME280;46415;47.536;19.066;2022-09-16T07:53:02;99758.88;;;17.73;90.08
60583;BME280;46415;47.536;19.066;2022-09-16T07:56:18;99765.19;;;17.81;89.10
60583;BME280;46415;47.536;19.066;2022-09-16T07:59:23;99764.13;;;18.14;89.05
60583;BME280;46415;47.536;19.066;2022-09-16T08:02:25;99772.00;;;18.35;88.82
60583;BME280;46415;47.536;19.066;2022-09-16T08:05:28;99768.44;;;18.15;86.28
60583;BME280;46415;47.536;19.066;2022-09-16T08:08:32;99771.41;;;18.31;87.00
60583;BME280;46415;47.536;19.066;2022-09-16T08:11:35;99777.25;;;18.35;85.83
60583;BME280;46415;47.536;19.066;2022-09-16T08:14:38;99777.56;;;18.72;86.18
60583;BME280;46415;47.536;19.066;2022-09-16T08:17:41;99777.44;;;18.83;86.83
60583;BME280;46415;47.536;19.066;2022-09-16T08:20:44;99784.12;;;18.87;82.91
60583;BME280;46415;47.536;19.066;2022-09-16T08:23:47;99780.19;;;18.72;84.14
60583;BME280;46415;47.536;19.066;2022-09-16T08:26:50;99776.53;;;18.94;82.59
60583;BME280;46415;47.536;19.066;2022-09-16T08:29:53;99793.22;;;18.83;80.82
60583;BME280;46415;47.536;19.066;2022-09-16T08:32:57;99782.88;;;18.82;80.40
60583;BME280;46415;47.536;19.066;2022-09-16T08:36:02;99781.03;;;18.72;80.00
60583;BME280;46415;47.536;19.066;2022-09-16T08:39:06;99782.03;;;18.51;81.37
60583;BME280;46415;47.536;19.066;2022-09-16T08:42:41;99780.69;;;18.35;81.54
60583;BME280;46415;47.536;19.066;2022-09-16T08:49:18;99769.91;;;18.08;81.85
60583;BME280;46415;47.536;19.066;2022-09-16T08:52:36;99770.19;;;18.05;85.01
60583;BME280;46415;47.536;19.066;2022-09-16T08:55:43;99785.84;;;17.95;81.48
60583;BME280;46415;47.536;19.066;2022-09-16T08:58:55;99778.28;;;18.02;82.54
60583;BME280;46415;47.536;19.066;2022-09-16T09:05:26;99795.84;;;18.22;79.12
60583;BME280;46415;47.536;19.066;2022-09-16T09:08:47;99788.72;;;18.34;81.00
60583;BME280;46415;47.536;19.066;2022-09-16T09:13:03;99790.19;;;18.27;79.08
60583;BME280;46415;47.536;19.066;2022-09-16T09:15:48;99794.69;;;18.15;80.27
60583;BME280;46415;47.536;19.066;2022-09-16T09:19:19;99780.09;;;18.02;81.43
60583;BME280;46415;47.536;19.066;2022-09-16T09:25:57;99769.66;;;18.11;79.83
60583;BME280;46415;47.536;19.066;2022-09-16T09:29:15;99785.50;;;18.30;80.05
60583;BME280;46415;47.536;19.066;2022-09-16T09:36:02;99778.38;;;18.42;79.26
60583;BME280;46415;47.536;19.066;2022-09-16T09:39:32;99779.84;;;18.56;78.95
60583;BME280;46415;47.536;19.066;2022-09-16T09:42:51;99767.75;;;18.74;79.07
60583;BME280;46415;47.536;19.066;2022-09-16T09:46:08;99772.47;;;18.80;79.01
60583;BME280;46415;47.536;19.066;2022-09-16T09:49:18;99774.59;;;18.96;77.57
60583;BME280;46415;47.536;19.066;2022-09-16T09:52:29;99773.91;;;19.03;75.70
60583;BME280;46415;47.536;19.066;2022-09-16T09:55:36;99772.84;;;19.06;74.17
60583;BME280;46415;47.536;19.066;2022-09-16T09:58:45;99768.66;;;19.13;73.64
60583;BME280;46415;47.536;19.066;2022-09-16T10:01:56;99766.34;;;19.29;66.09
60583;BME280;46415;47.536;19.066;2022-09-16T10:05:00;99763.16;;;19.26;66.87
60583;BME280;46415;47.536;19.066;2022-09-16T10:11:21;99747.25;;;19.56;67.20
60583;BME280;46415;47.536;19.066;2022-09-16T10:14:33;99745.00;;;19.32;66.57
60583;BME280;46415;47.536;19.066;2022-09-16T10:17:36;99749.31;;;19.43;65.69
60583;BME280;46415;47.536;19.066;2022-09-16T10:20:42;99748.78;;;19.30;66.80
60583;BME280;46415;47.536;19.066;2022-09-16T10:23:56;99758.03;;;19.24;65.43
60583;BME280;46415;47.536;19.066;2022-09-16T10:30:30;99742.66;;;19.20;63.13
60583;BME280;46415;47.536;19.066;2022-09-16T10:33:39;99750.97;;;19.15;64.17
60583;BME280;46415;47.536;19.066;2022-09-16T10:36:43;99753.19;;;19.39;60.77
60583;BME280;46415;47.536;19.066;2022-09-16T10:39:52;99748.53;;;19.52;60.41
60583;BME280;46415;47.536;19.066;2022-09-16T10:43:02;99746.44;;;19.46;59.70
60583;BME280;46415;47.536;19.066;2022-09-16T10:46:05;99746.03;;;19.50;60.01
60583;BME280;46415;47.536;19.066;2022-09-16T10:49:10;99747.28;;;19.46;60.55
60583;BME280;46415;47.536;19.066;2022-09-16T10:52:16;99745.47;;;19.66;60.69
60583;BME280;46415;47.536;19.066;2022-09-16T10:55:29;99744.63;;;19.75;62.29
60583;BME280;46415;47.536;19.066;2022-09-16T10:58:36;99745.44;;;19.85;62.95
60583;BME280;46415;47.536;19.066;2022-09-16T11:11:52;99751.81;;;19.92;56.83
60583;BME280;46415;47.536;19.066;2022-09-16T11:15:27;99747.41;;;19.83;58.23
60583;BME280;46415;47.536;19.066;2022-09-16T11:18:46;99754.34;;;19.65;56.33
60583;BME280;46415;47.536;19.066;2022-09-16T11:22:03;99758.63;;;19.66;57.35
60583;BME280;46415;47.536;19.066;2022-09-16T11:25:43;99750.16;;;19.72;57.92
60583;BME280;46415;47.536;19.066;2022-09-16T11:28:45;99752.62;;;19.93;57.61
60583;BME280;46415;47.536;19.066;2022-09-16T11:31:59;99746.25;;;19.95;59.20
60583;BME280;46415;47.536;19.066;2022-09-16T11:38:40;99736.13;;;20.47;58.68
60583;BME280;46415;47.536;19.066;2022-09-16T11:41:58;99730.22;;;20.26;56.57
60583;BME280;46415;47.536;19.066;2022-09-16T11:45:25;99728.72;;;20.60;59.17
60583;BME280;46415;47.536;19.066;2022-09-16T11:55:35;99710.94;;;21.07;52.08
60583;BME280;46415;47.536;19.066;2022-09-16T11:58:57;99710.50;;;21.47;52.36
60583;BME280;46415;47.536;19.066;2022-09-16T12:05:21;99697.31;;;21.30;51.80
60583;BME280;46415;47.536;19.066;2022-09-16T12:08:29;99708.94;;;21.37;53.66
60583;BME280;46415;47.536;19.066;2022-09-16T12:11:43;99711.19;;;21.49;52.83
60583;BME280;46415;47.536;19.066;2022-09-16T12:14:53;99699.25;;;21.45;50.98
60583;BME280;46415;47.536;19.066;2022-09-16T12:18:07;99694.53;;;21.31;52.38
60583;BME280;46415;47.536;19.066;2022-09-16T12:21:22;99692.12;;;21.20;52.45
60583;BME280;46415;47.536;19.066;2022-09-16T12:24:42;99693.06;;;21.01;52.70
60583;BME280;46415;47.536;19.066;2022-09-16T12:28:02;99695.56;;;20.58;54.56
60583;BME280;46415;47.536;19.066;2022-09-16T12:31:25;99684.81;;;20.69;55.28
60583;BME280;46415;47.536;19.066;2022-09-16T12:34:35;99685.94;;;20.66;56.85
60583;BME280;46415;47.536;19.066;2022-09-16T12:37:48;99682.78;;;20.81;57.20
60583;BME280;46415;47.536;19.066;2022-09-16T13:04:24;99662.72;;;20.52;57.51
60583;BME280;46415;47.536;19.066;2022-09-16T13:07:32;99658.00;;;20.73;54.98
60583;BME280;46415;47.536;19.066;2022-09-16T13:10:39;99646.62;;;20.73;54.49
60583;BME280;46415;47.536;19.066;2022-09-16T13:14:03;99646.41;;;20.84;54.66
60583;BME280;46415;47.536;19.066;2022-09-16T13:17:09;99647.59;;;20.54;53.59
60583;BME280;46415;47.536;19.066;2022-09-16T13:20:39;99645.44;;;20.67;55.15
60583;BME280;46415;47.536;19.066;2022-09-16T13:23:46;99651.56;;;20.31;55.48
60583;BME280;46415;47.536;19.066;2022-09-16T13:26:49;99648.03;;;20.13;60.26
60583;BME280;46415;47.536;19.066;2022-09-16T13:30:09;99649.91;;;20.30;58.24
60583;BME280;46415;47.536;19.066;2022-09-16T13:39:30;99650.56;;;20.42;60.97
60583;BME280;46415;47.536;19.066;2022-09-16T13:42:33;99642.59;;;20.24;58.78
60583;BME280;46415;47.536;19.066;2022-09-16T13:45:39;99637.25;;;20.43;59.00
60583;BME280;46415;47.536;19.066;2022-09-16T13:48:54;99641.38;;;20.46;58.91
60583;BME280;46415;47.536;19.066;2022-09-16T13:51:57;99638.97;;;20.52;58.45
60583;BME280;46415;47.536;19.066;2022-09-16T13:55:03;99629.16;;;20.45;59.42
60583;BME280;46415;47.536;19.066;2022-09-16T14:01:36;99626.59;;;19.98;62.74
60583;BME280;46415;47.536;19.066;2022-09-16T14:05:28;99620.09;;;19.92;62.15
60583;BME280;46415;47.536;19.066;2022-09-16T14:08:41;99624.09;;;19.96;62.43
60583;BME280;46415;47.536;19.066;2022-09-16T14:12:15;99612.97;;;20.12;64.34
60583;BME280;46415;47.536;19.066;2022-09-16T14:15:21;99613.28;;;20.27;61.95
60583;BME280;46415;47.536;19.066;2022-09-16T14:18:28;99607.31;;;20.07;61.48
60583;BME280;46415;47.536;19.066;2022-09-16T14:21:33;99604.63;;;19.89;62.41
60583;BME280;46415;47.536;19.066;2022-09-16T14:24:39;99606.34;;;19.71;62.25
60583;BME280;46415;47.536;19.066;2022-09-16T14:27:41;99607.66;;;19.29;63.45
60583;BME280;46415;47.536;19.066;2022-09-16T14:30:57;99600.19;;;19.24;64.37
60583;BME280;46415;47.536;19.066;2022-09-16T14:34:04;99604.63;;;19.04;64.81
60583;BME280;46415;47.536;19.066;2022-09-16T14:37:15;99601.03;;;19.05;66.12
60583;BME280;46415;47.536;19.066;2022-09-16T14:40:21;99610.16;;;19.01;65.74
60583;BME280;46415;47.536;19.066;2022-09-16T14:43:26;99606.84;;;18.90;66.16
60583;BME280;46415;47.536;19.066;2022-09-16T14:46:28;99609.88;;;18.85;64.84
60583;BME280;46415;47.536;19.066;2022-09-16T14:49:34;99594.25;;;18.64;65.87
60583;BME280;46415;47.536;19.066;2022-09-16T14:52:38;99590.09;;;18.71;67.76
60583;BME280;46415;47.536;19.066;2022-09-16T14:55:47;99578.47;;;18.84;69.04
60583;BME280;46415;47.536;19.066;2022-09-16T14:58:53;99581.22;;;19.01;68.09
60583;BME280;46415;47.536;19.066;2022-09-16T15:02:01;99579.28;;;19.03;67.52
60583;BME280;46415;47.536;19.066;2022-09-16T15:08:16;99575.16;;;18.91;68.30
60583;BME280;46415;47.536;19.066;2022-09-16T15:11:26;99571.56;;;18.92;69.54
60583;BME280;46415;47.536;19.066;2022-09-16T15:14:49;99585.41;;;18.94;68.52
60583;BME280;46415;47.536;19.066;2022-09-16T15:17:59;99586.06;;;18.77;68.12
60583;BME280;46415;47.536;19.066;2022-09-16T15:21:17;99592.72;;;18.62;69.26
60583;BME280;46415;47.536;19.066;2022-09-16T15:24:28;99599.78;;;18.61;70.73
60583;BME280;46415;47.536;19.066;2022-09-16T15:27:32;99597.78;;;18.54;70.84
60583;BME280;46415;47.536;19.066;2022-09-16T15:30:44;99591.16;;;18.50;71.90
60583;BME280;46415;47.536;19.066;2022-09-16T15:33:51;99594.44;;;18.42;72.27
60583;BME280;46415;47.536;19.066;2022-09-16T15:36:55;99589.19;;;18.32;73.06
60583;BME280;46415;47.536;19.066;2022-09-16T15:43:36;99588.81;;;18.07;74.83
60583;BME280;46415;47.536;19.066;2022-09-16T15:46:45;99585.66;;;18.03;76.00
60583;BME280;46415;47.536;19.066;2022-09-16T15:49:57;99596.81;;;17.95;77.35
60583;BME280;46415;47.536;19.066;2022-09-16T15:56:18;99597.56;;;17.77;78.83
60583;BME280;46415;47.536;19.066;2022-09-16T15:59:35;99585.97;;;17.79;79.71
60583;BME280;46415;47.536;19.066;2022-09-16T16:05:53;99584.66;;;17.64;80.25
60583;BME280;46415;47.536;19.066;2022-09-16T16:08:56;99581.47;;;17.61;81.26
60583;BME280;46415;47.536;19.066;2022-09-16T16:15:10;99588.81;;;17.46;83.46
60583;BME280;46415;47.536;19.066;2022-09-16T16:18:13;99588.81;;;17.46;83.78
60583;BME280;46415;47.536;19.066;2022-09-16T16:21:16;99581.84;;;17.35;84.98
60583;BME280;46415;47.536;19.066;2022-09-16T16:24:18;99587.88;;;17.26;85.65
60583;BME280;46415;47.536;19.066;2022-09-16T16:27:21;99582.34;;;17.29;85.80
60583;BME280;46415;47.536;19.066;2022-09-16T16:30:25;99571.19;;;17.27;86.02
60583;BME280;46415;47.536;19.066;2022-09-16T16:33:28;99582.25;;;17.31;86.07
60583;BME280;46415;47.536;19.066;2022-09-16T16:36:30;99582.19;;;17.21;86.45
60583;BME280;46415;47.536;19.066;2022-09-16T16:39:34;99575.72;;;17.25;87.18
60583;BME280;46415;47.536;19.066;2022-09-16T16:42:36;99566.91;;;17.26;87.43
60583;BME280;46415;47.536;19.066;2022-09-16T16:45:39;99560.19;;;17.12;88.40
60583;BME280;46415;47.536;19.066;2022-09-16T16:48:42;99554.09;;;17.12;88.75
60583;BME280;46415;47.536;19.066;2022-09-16T16:51:47;99552.44;;;17.11;88.59
60583;BME280;46415;47.536;19.066;2022-09-16T16:54:51;99554.16;;;17.01;89.94
60583;BME280;46415;47.536;19.066;2022-09-16T16:57:53;99549.97;;;17.09;88.84
60583;BME280;46415;47.536;19.066;2022-09-16T17:04:11;99549.56;;;16.93;88.83
60583;BME280;46415;47.536;19.066;2022-09-16T17:07:14;99546.81;;;16.95;89.17
60583;BME280;46415;47.536;19.066;2022-09-16T17:10:28;99556.12;;;16.88;88.94
60583;BME280;46415;47.536;19.066;2022-09-16T17:13:31;99552.16;;;16.93;87.66
60583;BME280;46415;47.536;19.066;2022-09-16T17:16:33;99545.66;;;16.88;88.84
60583;BME280;46415;47.536;19.066;2022-09-16T17:19:36;99538.44;;;16.80;90.11
60583;BME280;46415;47.536;19.066;2022-09-16T17:22:39;99532.41;;;16.68;90.08
60583;BME280;46415;47.536;19.066;2022-09-16T17:25:41;99543.09;;;16.77;90.48
60583;BME280;46415;47.536;19.066;2022-09-16T17:28:46;99537.59;;;16.80;89.19
60583;BME280;46415;47.536;19.066;2022-09-16T17:31:49;99541.75;;;16.82;90.47
60583;BME280;46415;47.536;19.066;2022-09-16T17:34:52;99545.25;;;16.71;90.67
60583;BME280;46415;47.536;19.066;2022-09-16T17:37:54;99543.84;;;16.67;91.38
60583;BME280;46415;47.536;19.066;2022-09-16T17:41:24;99547.16;;;16.69;91.08
60583;BME280;46415;47.536;19.066;2022-09-16T17:44:30;99542.31;;;16.65;90.37
60583;BME280;46415;47.536;19.066;2022-09-16T17:47:34;99550.28;;;16.63;90.28
60583;BME280;46415;47.536;19.066;2022-09-16T17:50:37;99557.47;;;16.61;91.70
60583;BME280;46415;47.536;19.066;2022-09-16T17:53:39;99572.53;;;16.58;93.49
60583;BME280;46415;47.536;19.066;2022-09-16T17:56:42;99582.69;;;16.51;93.59
60583;BME280;46415;47.536;19.066;2022-09-16T17:59:45;99582.69;;;16.51;94.00
60583;BME280;46415;47.536;19.066;2022-09-16T18:02:48;99572.09;;;16.53;93.35
60583;BME280;46415;47.536;19.066;2022-09-16T18:05:51;99562.56;;;16.52;92.38
60583;BME280;46415;47.536;19.066;2022-09-16T18:08:54;99567.44;;;16.56;86.79
60583;BME280;46415;47.536;19.066;2022-09-16T18:11:58;99558.59;;;16.57;91.59
60583;BME280;46415;47.536;19.066;2022-09-16T18:15:00;99560.09;;;16.50;92.62
60583;BME280;46415;47.536;19.066;2022-09-16T18:18:04;99561.13;;;16.59;90.25
60583;BME280;46415;47.536;19.066;2022-09-16T18:21:09;99557.47;;;16.50;92.13
60583;BME280;46415;47.536;19.066;2022-09-16T18:24:12;99560.34;;;16.36;93.55